sensor_id;sensor_type;location;lat;lon;timestamp;temperature;humidity
52543;DHT22;38449;52.696;6.186;2024-03-23T00:55:18;7.00;99.90
52543;DHT22;38449;52.696;6.186;2024-03-23T00:57:44;6.90;99.90
52543;DHT22;38449;52.696;6.186;2024-03-23T01:00:11;7.20;99.90
52543;DHT22;38449;52.696;6.186;2024-03-23T01:02:37;7.10;99.90
52543;DHT22;38449;52.696;6.186;2024-03-23T01:05:04;6.90;99.90
52543;DHT22;38449;52.696;6.186;2024-03-23T01:07:30;6.80;99.90
52543;DHT22;38449;52.696;6.186;2024-03-23T01:09:56;7.00;99.90
52543;DHT22;38449;52.696;6.186;2024-03-23T01:12:22;6.90;99.90
52543;DHT22;38449;52.696;6.186;2024-03-23T01:14:49;6.70;99.90
52543;DHT22;38449;52.696;6.186;2024-03-23T01:17:15;6.60;99.90
52543;DHT22;38449;52.696;6.186;2024-03-23T01:19:41;6.60;99.90
52543;DHT22;38449;52.696;6.186;2024-03-23T01:22:08;6.70;99.90
52543;DHT22;38449;52.696;6.186;2024-03-23T01:24:36;6.80;99.90
52543;DHT22;38449;52.696;6.186;2024-03-23T01:27:02;6.60;99.90
52543;DHT22;38449;52.696;6.186;2024-03-23T01:29:29;6.50;99.90
52543;DHT22;38449;52.696;6.186;2024-03-23T01:31:55;6.50;99.90
52543;DHT22;38449;52.696;6.186;2024-03-23T01:34:22;6.60;99.90
52543;DHT22;38449;52.696;6.186;2024-03-23T01:36:48;6.80;99.90
52543;DHT22;38449;52.696;6.186;2024-03-23T01:39:14;6.80;99.90
52543;DHT22;38449;52.696;6.186;2024-03-23T01:41:41;6.80;99.90
52543;DHT22;38449;52.696;6.186;2024-03-23T01:44:09;6.90;99.90
52543;DHT22;38449;52.696;6.186;2024-03-23T01:46:37;6.80;99.90
52543;DHT22;38449;52.696;6.186;2024-03-23T01:49:04;6.80;99.90
52543;DHT22;38449;52.696;6.186;2024-03-23T01:51:32;6.40;99.90
52543;DHT22;38449;52.696;6.186;2024-03-23T01:54:00;6.70;99.90
52543;DHT22;38449;52.696;6.186;2024-03-23T01:56:35;6.60;99.90
52543;DHT22;38449;52.696;6.186;2024-03-23T01:59:02;6.60;99.90
52543;DHT22;38449;52.696;6.186;2024-03-23T02:01:29;6.30;99.90
52543;DHT22;38449;52.696;6.186;2024-03-23T02:03:56;6.30;99.90
52543;DHT22;38449;52.696;6.186;2024-03-23T02:06:24;6.60;99.90
52543;DHT22;38449;52.696;6.186;2024-03-23T02:08:50;6.20;99.90
52543;DHT22;38449;52.696;6.186;2024-03-23T02:11:16;6.30;99.90
52543;DHT22;38449;52.696;6.186;2024-03-23T02:13:43;6.50;99.90
52543;DHT22;38449;52.696;6.186;2024-03-23T02:16:09;6.50;99.90
52543;DHT22;38449;52.696;6.186;2024-03-23T02:18:36;6.40;99.90
52543;DHT22;38449;52.696;6.186;2024-03-23T02:21:03;6.30;99.90
52543;DHT22;38449;52.696;6.186;2024-03-23T02:23:29;6.10;99.90
52543;DHT22;38449;52.696;6.186;2024-03-23T02:25:55;6.30;99.90
52543;DHT22;38449;52.696;6.186;2024-03-23T02:28:22;6.00;99.90
52543;DHT22;38449;52.696;6.186;2024-03-23T02:30:51;5.90;99.90
52543;DHT22;38449;52.696;6.186;2024-03-23T02:33:18;6.10;99.90
52543;DHT22;38449;52.696;6.186;2024-03-23T02:35:45;6.00;99.90
52543;DHT22;38449;52.696;6.186;2024-03-23T02:38:11;6.10;99.90
52543;DHT22;38449;52.696;6.186;2024-03-23T02:40:37;6.10;99.90
52543;DHT22;38449;52.696;6.186;2024-03-23T02:43:04;5.80;99.90
52543;DHT22;38449;52.696;6.186;2024-03-23T02:45:30;5.80;99.90
52543;DHT22;38449;52.696;6.186;2024-03-23T02:47:57;6.00;99.90
52543;DHT22;38449;52.696;6.186;2024-03-23T02:50:23;5.60;99.90
52543;DHT22;38449;52.696;6.186;2024-03-23T02:52:49;5.60;99.90
52543;DHT22;38449;52.696;6.186;2024-03-23T02:55:16;5.80;99.90
52543;DHT22;38449;52.696;6.186;2024-03-23T02:57:42;5.50;99.90
52543;DHT22;38449;52.696;6.186;2024-03-23T03:00:09;5.50;99.90
52543;DHT22;38449;52.696;6.186;2024-03-23T03:02:37;5.60;99.90
52543;DHT22;38449;52.696;6.186;2024-03-23T03:05:04;5.70;99.90
52543;DHT22;38449;52.696;6.186;2024-03-23T03:07:32;5.60;99.90
52543;DHT22;38449;52.696;6.186;2024-03-23T03:09:58;5.60;99.90
52543;DHT22;38449;52.696;6.186;2024-03-23T03:12:24;5.50;99.90
52543;DHT22;38449;52.696;6.186;2024-03-23T03:14:51;5.50;99.90
52543;DHT22;38449;52.696;6.186;2024-03-23T03:17:17;5.40;99.90
52543;DHT22;38449;52.696;6.186;2024-03-23T03:19:43;5.70;99.90
52543;DHT22;38449;52.696;6.186;2024-03-23T03:22:10;5.50;99.90
52543;DHT22;38449;52.696;6.186;2024-03-23T03:24:36;5.40;99.90
52543;DHT22;38449;52.696;6.186;2024-03-23T03:27:02;5.30;99.90
52543;DHT22;38449;52.696;6.186;2024-03-23T03:29:29;5.40;99.90
52543;DHT22;38449;52.696;6.186;2024-03-23T03:32:02;5.30;99.90
52543;DHT22;38449;52.696;6.186;2024-03-23T03:34:28;5.30;99.90
52543;DHT22;38449;52.696;6.186;2024-03-23T03:36:55;5.30;99.90
52543;DHT22;38449;52.696;6.186;2024-03-23T03:39:22;5.30;99.90
52543;DHT22;38449;52.696;6.186;2024-03-23T03:41:49;5.60;99.90
52543;DHT22;38449;52.696;6.186;2024-03-23T03:44:16;5.50;99.90
52543;DHT22;38449;52.696;6.186;2024-03-23T03:46:42;5.40;99.90
52543;DHT22;38449;52.696;6.186;2024-03-23T03:49:09;5.50;99.90
52543;DHT22;38449;52.696;6.186;2024-03-23T03:51:35;5.50;99.90
52543;DHT22;38449;52.696;6.186;2024-03-23T03:54:01;5.40;99.90
52543;DHT22;38449;52.696;6.186;2024-03-23T03:56:28;5.50;99.90
52543;DHT22;38449;52.696;6.186;2024-03-23T03:58:54;5.60;99.90
52543;DHT22;38449;52.696;6.186;2024-03-23T04:01:20;5.30;99.90
52543;DHT22;38449;52.696;6.186;2024-03-23T04:03:47;5.50;99.90
52543;DHT22;38449;52.696;6.186;2024-03-23T04:06:19;5.40;99.90
52543;DHT22;38449;52.696;6.186;2024-03-23T04:08:45;5.50;99.90
52543;DHT22;38449;52.696;6.186;2024-03-23T04:11:12;5.50;99.90
52543;DHT22;38449;52.696;6.186;2024-03-23T04:13:38;5.20;99.90
52543;DHT22;38449;52.696;6.186;2024-03-23T04:16:07;5.10;99.90
52543;DHT22;38449;52.696;6.186;2024-03-23T04:18:35;5.10;99.90
52543;DHT22;38449;52.696;6.186;2024-03-23T04:21:01;5.20;99.90
52543;DHT22;38449;52.696;6.186;2024-03-23T04:23:28;5.20;99.90
52543;DHT22;38449;52.696;6.186;2024-03-23T04:25:54;5.30;99.90
52543;DHT22;38449;52.696;6.186;2024-03-23T04:28:20;5.20;99.90
52543;DHT22;38449;52.696;6.186;2024-03-23T04:30:47;5.10;99.90
52543;DHT22;38449;52.696;6.186;2024-03-23T04:33:13;5.10;99.90
52543;DHT22;38449;52.696;6.186;2024-03-23T04:35:39;4.90;99.90
52543;DHT22;38449;52.696;6.186;2024-03-23T04:38:05;4.90;99.90
52543;DHT22;38449;52.696;6.186;2024-03-23T04:40:32;4.70;99.90
52543;DHT22;38449;52.696;6.186;2024-03-23T04:42:58;4.90;99.90
52543;DHT22;38449;52.696;6.186;2024-03-23T04:45:25;4.90;99.90
52543;DHT22;38449;52.696;6.186;2024-03-23T04:47:51;4.90;99.90
52543;DHT22;38449;52.696;6.186;2024-03-23T04:50:17;4.90;99.90
52543;DHT22;38449;52.696;6.186;2024-03-23T04:52:44;4.90;99.90
52543;DHT22;38449;52.696;6.186;2024-03-23T04:55:10;4.70;99.90
52543;DHT22;38449;52.696;6.186;2024-03-23T04:57:38;4.60;99.90
52543;DHT22;38449;52.696;6.186;2024-03-23T05:00:05;4.70;99.90
52543;DHT22;38449;52.696;6.186;2024-03-23T05:02:43;4.90;99.90
52543;DHT22;38449;52.696;6.186;2024-03-23T05:05:10;4.70;99.90
52543;DHT22;38449;52.696;6.186;2024-03-23T05:07:37;4.70;99.90
52543;DHT22;38449;52.696;6.186;2024-03-23T05:10:04;4.80;99.90
52543;DHT22;38449;52.696;6.186;2024-03-23T05:12:30;4.90;99.90
52543;DHT22;38449;52.696;6.186;2024-03-23T05:14:57;4.70;99.90
52543;DHT22;38449;52.696;6.186;2024-03-23T05:17:24;4.90;99.90
52543;DHT22;38449;52.696;6.186;2024-03-23T05:19:50;4.80;99.90
52543;DHT22;38449;52.696;6.186;2024-03-23T05:22:16;4.90;99.90
52543;DHT22;38449;52.696;6.186;2024-03-23T05:24:45;4.90;99.90
52543;DHT22;38449;52.696;6.186;2024-03-23T05:27:11;4.70;99.90
52543;DHT22;38449;52.696;6.186;2024-03-23T05:29:37;4.60;99.90
52543;DHT22;38449;52.696;6.186;2024-03-23T05:32:04;4.80;99.90
52543;DHT22;38449;52.696;6.186;2024-03-23T05:34:30;4.80;99.90
52543;DHT22;38449;52.696;6.186;2024-03-23T05:36:56;4.80;99.90
52543;DHT22;38449;52.696;6.186;2024-03-23T05:39:23;4.80;99.90
52543;DHT22;38449;52.696;6.186;2024-03-23T05:41:50;4.90;99.90
52543;DHT22;38449;52.696;6.186;2024-03-23T05:44:16;4.80;99.90
52543;DHT22;38449;52.696;6.186;2024-03-23T05:46:42;5.10;99.90
52543;DHT22;38449;52.696;6.186;2024-03-23T05:49:15;5.10;99.90
52543;DHT22;38449;52.696;6.186;2024-03-23T05:51:41;5.00;99.90
52543;DHT22;38449;52.696;6.186;2024-03-23T05:54:08;5.20;99.90
52543;DHT22;38449;52.696;6.186;2024-03-23T05:56:34;5.50;99.90
52543;DHT22;38449;52.696;6.186;2024-03-23T05:59:00;5.70;99.90
52543;DHT22;38449;52.696;6.186;2024-03-23T06:01:27;5.50;99.90
52543;DHT22;38449;52.696;6.186;2024-03-23T06:03:55;5.70;99.90
52543;DHT22;38449;52.696;6.186;2024-03-23T06:06:21;5.40;99.90
52543;DHT22;38449;52.696;6.186;2024-03-23T06:08:47;5.40;99.90
52543;DHT22;38449;52.696;6.186;2024-03-23T06:11:14;5.50;99.90
52543;DHT22;38449;52.696;6.186;2024-03-23T06:13:40;5.10;99.90
52543;DHT22;38449;52.696;6.186;2024-03-23T06:16:06;5.20;99.90
52543;DHT22;38449;52.696;6.186;2024-03-23T06:18:33;5.20;99.90
52543;DHT22;38449;52.696;6.186;2024-03-23T06:20:59;5.10;99.90
52543;DHT22;38449;52.696;6.186;2024-03-23T06:23:25;5.30;99.90
52543;DHT22;38449;52.696;6.186;2024-03-23T06:25:52;5.00;99.90
52543;DHT22;38449;52.696;6.186;2024-03-23T06:28:18;5.00;99.90
52543;DHT22;38449;52.696;6.186;2024-03-23T06:30:45;5.00;99.90
52543;DHT22;38449;52.696;6.186;2024-03-23T06:33:11;5.10;99.90
52543;DHT22;38449;52.696;6.186;2024-03-23T06:35:38;5.10;99.90
52543;DHT22;38449;52.696;6.186;2024-03-23T06:38:04;5.30;99.90
52543;DHT22;38449;52.696;6.186;2024-03-23T06:40:30;5.60;99.90
52543;DHT22;38449;52.696;6.186;2024-03-23T06:42:56;6.10;99.90
52543;DHT22;38449;52.696;6.186;2024-03-23T06:45:23;6.90;99.90
52543;DHT22;38449;52.696;6.186;2024-03-23T06:47:49;7.20;99.90
52543;DHT22;38449;52.696;6.186;2024-03-23T06:50:16;7.80;99.90
52543;DHT22;38449;52.696;6.186;2024-03-23T06:52:43;8.20;99.90
52543;DHT22;38449;52.696;6.186;2024-03-23T06:55:09;8.60;99.90
52543;DHT22;38449;52.696;6.186;2024-03-23T06:57:38;8.50;99.90
52543;DHT22;38449;52.696;6.186;2024-03-23T07:00:05;8.40;99.90
52543;DHT22;38449;52.696;6.186;2024-03-23T07:02:36;8.50;99.90
52543;DHT22;38449;52.696;6.186;2024-03-23T07:05:02;8.30;99.90
52543;DHT22;38449;52.696;6.186;2024-03-23T07:07:29;8.40;99.90
52543;DHT22;38449;52.696;6.186;2024-03-23T07:09:56;8.50;99.90
52543;DHT22;38449;52.696;6.186;2024-03-23T07:12:22;8.10;99.90
52543;DHT22;38449;52.696;6.186;2024-03-23T07:14:48;7.40;99.90
52543;DHT22;38449;52.696;6.186;2024-03-23T07:17:15;6.90;99.90
52543;DHT22;38449;52.696;6.186;2024-03-23T07:19:41;6.90;99.90
52543;DHT22;38449;52.696;6.186;2024-03-23T07:22:08;6.70;99.90
52543;DHT22;38449;52.696;6.186;2024-03-23T07:24:34;6.30;99.90
52543;DHT22;38449;52.696;6.186;2024-03-23T07:27:00;6.50;99.90
52543;DHT22;38449;52.696;6.186;2024-03-23T07:29:26;6.30;99.90
52543;DHT22;38449;52.696;6.186;2024-03-23T07:31:53;6.40;99.90
52543;DHT22;38449;52.696;6.186;2024-03-23T07:34:19;6.30;99.90
52543;DHT22;38449;52.696;6.186;2024-03-23T07:36:46;6.20;99.90
52543;DHT22;38449;52.696;6.186;2024-03-23T07:39:12;6.10;99.90
52543;DHT22;38449;52.696;6.186;2024-03-23T07:41:38;6.50;99.90
52543;DHT22;38449;52.696;6.186;2024-03-23T07:44:04;6.50;99.90
52543;DHT22;38449;52.696;6.186;2024-03-23T07:46:31;6.60;99.90
52543;DHT22;38449;52.696;6.186;2024-03-23T07:48:57;6.70;99.90
52543;DHT22;38449;52.696;6.186;2024-03-23T07:51:23;7.00;99.90
52543;DHT22;38449;52.696;6.186;2024-03-23T07:53:50;6.70;99.90
52543;DHT22;38449;52.696;6.186;2024-03-23T07:56:16;6.80;99.90
52543;DHT22;38449;52.696;6.186;2024-03-23T07:58:44;6.90;99.90
52543;DHT22;38449;52.696;6.186;2024-03-23T08:01:12;6.80;99.90
52543;DHT22;38449;52.696;6.186;2024-03-23T08:03:42;7.10;99.90
52543;DHT22;38449;52.696;6.186;2024-03-23T08:06:13;7.00;99.90
52543;DHT22;38449;52.696;6.186;2024-03-23T08:08:41;6.80;99.90
52543;DHT22;38449;52.696;6.186;2024-03-23T08:11:07;6.90;99.90
52543;DHT22;38449;52.696;6.186;2024-03-23T08:13:34;7.10;99.90
52543;DHT22;38449;52.696;6.186;2024-03-23T08:16:02;7.20;99.90
52543;DHT22;38449;52.696;6.186;2024-03-23T08:18:29;7.30;99.90
52543;DHT22;38449;52.696;6.186;2024-03-23T08:21:01;7.20;99.90
52543;DHT22;38449;52.696;6.186;2024-03-23T08:23:28;7.20;99.90
52543;DHT22;38449;52.696;6.186;2024-03-23T08:25:58;7.20;99.90
52543;DHT22;38449;52.696;6.186;2024-03-23T08:28:26;7.30;99.90
52543;DHT22;38449;52.696;6.186;2024-03-23T08:30:53;7.00;99.90
52543;DHT22;38449;52.696;6.186;2024-03-23T08:33:20;6.90;99.90
52543;DHT22;38449;52.696;6.186;2024-03-23T08:35:58;6.90;99.90
52543;DHT22;38449;52.696;6.186;2024-03-23T08:38:25;6.70;99.90
52543;DHT22;38449;52.696;6.186;2024-03-23T08:40:59;6.60;99.90
52543;DHT22;38449;52.696;6.186;2024-03-23T08:43:26;6.60;99.90
52543;DHT22;38449;52.696;6.186;2024-03-23T08:45:53;6.70;99.90
52543;DHT22;38449;52.696;6.186;2024-03-23T08:48:20;6.60;99.90
52543;DHT22;38449;52.696;6.186;2024-03-23T08:51:03;6.70;99.90
52543;DHT22;38449;52.696;6.186;2024-03-23T08:53:30;6.60;99.90
52543;DHT22;38449;52.696;6.186;2024-03-23T08:55:57;6.80;99.90
52543;DHT22;38449;52.696;6.186;2024-03-23T08:58:25;6.90;99.90
52543;DHT22;38449;52.696;6.186;2024-03-23T09:00:52;7.00;99.90
52543;DHT22;38449;52.696;6.186;2024-03-23T09:03:18;7.10;99.90
52543;DHT22;38449;52.696;6.186;2024-03-23T09:05:45;7.40;99.90
52543;DHT22;38449;52.696;6.186;2024-03-23T09:08:11;7.40;99.90
52543;DHT22;38449;52.696;6.186;2024-03-23T09:10:41;7.50;99.90
52543;DHT22;38449;52.696;6.186;2024-03-23T09:13:08;7.70;99.90
52543;DHT22;38449;52.696;6.186;2024-03-23T09:15:35;7.90;99.90
52543;DHT22;38449;52.696;6.186;2024-03-23T09:18:04;8.10;99.90
52543;DHT22;38449;52.696;6.186;2024-03-23T09:20:34;8.20;99.90
52543;DHT22;38449;52.696;6.186;2024-03-23T09:23:00;8.30;99.90
52543;DHT22;38449;52.696;6.186;2024-03-23T09:25:26;8.30;99.90
52543;DHT22;38449;52.696;6.186;2024-03-23T09:27:53;8.30;99.90
52543;DHT22;38449;52.696;6.186;2024-03-23T09:30:19;8.40;99.90
52543;DHT22;38449;52.696;6.186;2024-03-23T09:32:46;8.40;99.90
52543;DHT22;38449;52.696;6.186;2024-03-23T09:35:12;8.40;99.90
52543;DHT22;38449;52.696;6.186;2024-03-23T09:37:38;8.50;99.90
52543;DHT22;38449;52.696;6.186;2024-03-23T09:40:11;8.70;99.90
52543;DHT22;38449;52.696;6.186;2024-03-23T09:42:38;8.70;99.90
52543;DHT22;38449;52.696;6.186;2024-03-23T09:45:13;8.90;99.90
52543;DHT22;38449;52.696;6.186;2024-03-23T09:47:42;9.00;99.90
52543;DHT22;38449;52.696;6.186;2024-03-23T09:50:09;9.00;99.90
52543;DHT22;38449;52.696;6.186;2024-03-23T09:52:36;8.70;99.90
52543;DHT22;38449;52.696;6.186;2024-03-23T09:55:03;8.40;99.90
52543;DHT22;38449;52.696;6.186;2024-03-23T09:57:30;8.20;99.90
52543;DHT22;38449;52.696;6.186;2024-03-23T09:59:56;8.00;99.90
52543;DHT22;38449;52.696;6.186;2024-03-23T10:02:24;8.10;99.90
52543;DHT22;38449;52.696;6.186;2024-03-23T10:04:51;8.00;99.90
52543;DHT22;38449;52.696;6.186;2024-03-23T10:07:19;8.10;99.90
52543;DHT22;38449;52.696;6.186;2024-03-23T10:09:46;8.20;99.90
52543;DHT22;38449;52.696;6.186;2024-03-23T10:12:19;8.30;99.90
52543;DHT22;38449;52.696;6.186;2024-03-23T10:14:45;8.30;99.90
52543;DHT22;38449;52.696;6.186;2024-03-23T10:17:19;8.40;99.90
52543;DHT22;38449;52.696;6.186;2024-03-23T10:19:50;8.30;99.90
52543;DHT22;38449;52.696;6.186;2024-03-23T10:22:21;8.50;99.90
52543;DHT22;38449;52.696;6.186;2024-03-23T10:24:49;8.50;99.90
52543;DHT22;38449;52.696;6.186;2024-03-23T10:27:16;8.60;99.90
52543;DHT22;38449;52.696;6.186;2024-03-23T10:29:47;8.70;99.90
52543;DHT22;38449;52.696;6.186;2024-03-23T10:32:14;8.70;99.90
52543;DHT22;38449;52.696;6.186;2024-03-23T10:34:41;8.80;99.90
52543;DHT22;38449;52.696;6.186;2024-03-23T10:37:09;8.80;99.90
52543;DHT22;38449;52.696;6.186;2024-03-23T10:39:39;8.90;99.90
52543;DHT22;38449;52.696;6.186;2024-03-23T10:42:07;9.20;99.90
52543;DHT22;38449;52.696;6.186;2024-03-23T10:44:34;9.40;99.90
52543;DHT22;38449;52.696;6.186;2024-03-23T10:47:02;9.40;99.90
52543;DHT22;38449;52.696;6.186;2024-03-23T10:49:32;9.60;99.90
52543;DHT22;38449;52.696;6.186;2024-03-23T10:52:05;9.50;99.90
52543;DHT22;38449;52.696;6.186;2024-03-23T10:54:33;9.70;99.90
52543;DHT22;38449;52.696;6.186;2024-03-23T10:57:03;9.40;99.90
52543;DHT22;38449;52.696;6.186;2024-03-23T10:59:31;9.70;99.90
52543;DHT22;38449;52.696;6.186;2024-03-23T11:01:58;9.90;99.90
52543;DHT22;38449;52.696;6.186;2024-03-23T11:04:36;9.90;99.90
52543;DHT22;38449;52.696;6.186;2024-03-23T11:09:56;9.60;99.90
52543;DHT22;38449;52.696;6.186;2024-03-23T11:15:11;9.50;99.90
52543;DHT22;38449;52.696;6.186;2024-03-23T11:17:38;9.60;99.90
52543;DHT22;38449;52.696;6.186;2024-03-23T11:20:06;9.70;99.90
52543;DHT22;38449;52.696;6.186;2024-03-23T11:22:41;10.00;99.90
52543;DHT22;38449;52.696;6.186;2024-03-23T11:30:16;10.20;99.90
52543;DHT22;38449;52.696;6.186;2024-03-23T11:32:44;10.40;99.90
52543;DHT22;38449;52.696;6.186;2024-03-23T11:35:28;10.30;99.90
52543;DHT22;38449;52.696;6.186;2024-03-23T11:38:21;9.80;99.90
52543;DHT22;38449;52.696;6.186;2024-03-23T11:40:48;9.50;99.90
52543;DHT22;38449;52.696;6.186;2024-03-23T11:43:19;9.40;99.90
52543;DHT22;38449;52.696;6.186;2024-03-23T11:45:48;9.50;99.90
52543;DHT22;38449;52.696;6.186;2024-03-23T11:48:15;9.10;99.90
52543;DHT22;38449;52.696;6.186;2024-03-23T11:50:46;9.00;99.90
52543;DHT22;38449;52.696;6.186;2024-03-23T11:53:17;8.80;99.90
52543;DHT22;38449;52.696;6.186;2024-03-23T11:55:50;8.50;99.90
52543;DHT22;38449;52.696;6.186;2024-03-23T11:58:18;8.10;99.90
52543;DHT22;38449;52.696;6.186;2024-03-23T12:01:00;7.90;99.90
52543;DHT22;38449;52.696;6.186;2024-03-23T12:03:31;7.90;99.90
52543;DHT22;38449;52.696;6.186;2024-03-23T12:06:03;7.90;99.90
52543;DHT22;38449;52.696;6.186;2024-03-23T12:08:33;8.10;99.90
52543;DHT22;38449;52.696;6.186;2024-03-23T12:13:33;8.40;99.90
52543;DHT22;38449;52.696;6.186;2024-03-23T12:16:13;8.70;99.90
52543;DHT22;38449;52.696;6.186;2024-03-23T12:18:41;8.80;99.90
52543;DHT22;38449;52.696;6.186;2024-03-23T12:21:08;8.60;99.90
52543;DHT22;38449;52.696;6.186;2024-03-23T12:23:35;8.40;99.90
52543;DHT22;38449;52.696;6.186;2024-03-23T12:26:02;8.10;99.90
52543;DHT22;38449;52.696;6.186;2024-03-23T12:28:28;7.60;99.90
52543;DHT22;38449;52.696;6.186;2024-03-23T12:30:54;7.10;99.90
52543;DHT22;38449;52.696;6.186;2024-03-23T12:33:21;6.80;99.90
52543;DHT22;38449;52.696;6.186;2024-03-23T12:35:51;6.80;99.90
52543;DHT22;38449;52.696;6.186;2024-03-23T12:38:17;7.00;99.90
52543;DHT22;38449;52.696;6.186;2024-03-23T12:40:47;7.40;99.90
52543;DHT22;38449;52.696;6.186;2024-03-23T12:43:17;7.80;99.90
52543;DHT22;38449;52.696;6.186;2024-03-23T12:45:50;7.90;99.90
52543;DHT22;38449;52.696;6.186;2024-03-23T12:48:17;8.10;99.90
52543;DHT22;38449;52.696;6.186;2024-03-23T12:50:43;8.50;99.90
52543;DHT22;38449;52.696;6.186;2024-03-23T12:53:09;8.60;99.90
52543;DHT22;38449;52.696;6.186;2024-03-23T12:55:36;8.70;99.90
52543;DHT22;38449;52.696;6.186;2024-03-23T12:58:02;9.00;99.90
52543;DHT22;38449;52.696;6.186;2024-03-23T13:00:29;9.20;99.90
52543;DHT22;38449;52.696;6.186;2024-03-23T13:02:55;8.90;99.90
52543;DHT22;38449;52.696;6.186;2024-03-23T13:05:21;8.80;99.90
52543;DHT22;38449;52.696;6.186;2024-03-23T13:07:48;8.50;99.90
52543;DHT22;38449;52.696;6.186;2024-03-23T13:10:14;8.30;99.90
52543;DHT22;38449;52.696;6.186;2024-03-23T13:12:42;8.30;99.90
52543;DHT22;38449;52.696;6.186;2024-03-23T13:15:09;8.20;99.90
52543;DHT22;38449;52.696;6.186;2024-03-23T13:17:35;8.20;99.90
52543;DHT22;38449;52.696;6.186;2024-03-23T13:20:01;8.00;99.90
52543;DHT22;38449;52.696;6.186;2024-03-23T13:22:29;8.00;99.90
52543;DHT22;38449;52.696;6.186;2024-03-23T13:24:56;7.90;99.90
52543;DHT22;38449;52.696;6.186;2024-03-23T13:27:22;8.20;99.90
52543;DHT22;38449;52.696;6.186;2024-03-23T13:29:48;8.30;99.90
52543;DHT22;38449;52.696;6.186;2024-03-23T13:32:16;7.80;99.90
52543;DHT22;38449;52.696;6.186;2024-03-23T13:34:42;7.40;99.90
52543;DHT22;38449;52.696;6.186;2024-03-23T13:37:09;7.40;99.90
52543;DHT22;38449;52.696;6.186;2024-03-23T13:39:36;7.50;99.90
52543;DHT22;38449;52.696;6.186;2024-03-23T13:42:02;7.90;99.90
52543;DHT22;38449;52.696;6.186;2024-03-23T13:44:29;8.00;99.90
52543;DHT22;38449;52.696;6.186;2024-03-23T13:46:56;8.30;99.90
52543;DHT22;38449;52.696;6.186;2024-03-23T13:49:30;8.30;99.90
52543;DHT22;38449;52.696;6.186;2024-03-23T13:51:59;8.30;99.90
52543;DHT22;38449;52.696;6.186;2024-03-23T13:54:26;8.30;99.90
52543;DHT22;38449;52.696;6.186;2024-03-23T13:56:54;8.30;99.90
52543;DHT22;38449;52.696;6.186;2024-03-23T13:59:20;8.30;99.90
52543;DHT22;38449;52.696;6.186;2024-03-23T14:01:49;8.30;99.90
52543;DHT22;38449;52.696;6.186;2024-03-23T14:04:17;8.10;99.90
52543;DHT22;38449;52.696;6.186;2024-03-23T14:06:43;7.80;99.90
52543;DHT22;38449;52.696;6.186;2024-03-23T14:09:13;7.60;99.90
52543;DHT22;38449;52.696;6.186;2024-03-23T14:11:41;7.50;99.90
52543;DHT22;38449;52.696;6.186;2024-03-23T14:14:10;7.70;99.90
52543;DHT22;38449;52.696;6.186;2024-03-23T14:16:36;7.60;99.90
52543;DHT22;38449;52.696;6.186;2024-03-23T14:19:03;7.70;99.90
52543;DHT22;38449;52.696;6.186;2024-03-23T14:21:31;7.90;99.90
52543;DHT22;38449;52.696;6.186;2024-03-23T14:23:58;7.90;99.90
52543;DHT22;38449;52.696;6.186;2024-03-23T14:26:24;8.10;99.90
52543;DHT22;38449;52.696;6.186;2024-03-23T14:28:51;8.20;99.90
52543;DHT22;38449;52.696;6.186;2024-03-23T14:31:17;8.20;99.90
52543;DHT22;38449;52.696;6.186;2024-03-23T14:33:43;8.30;99.90
52543;DHT22;38449;52.696;6.186;2024-03-23T14:36:16;8.40;99.90
52543;DHT22;38449;52.696;6.186;2024-03-23T14:38:49;8.50;99.90
52543;DHT22;38449;52.696;6.186;2024-03-23T14:41:16;8.50;99.90
52543;DHT22;38449;52.696;6.186;2024-03-23T14:43:42;8.60;99.90
52543;DHT22;38449;52.696;6.186;2024-03-23T14:46:16;8.60;99.90
52543;DHT22;38449;52.696;6.186;2024-03-23T14:48:44;8.60;99.90
52543;DHT22;38449;52.696;6.186;2024-03-23T14:51:10;8.60;99.90
52543;DHT22;38449;52.696;6.186;2024-03-23T14:53:41;8.50;99.90
52543;DHT22;38449;52.696;6.186;2024-03-23T14:56:11;8.40;99.90
52543;DHT22;38449;52.696;6.186;2024-03-23T14:58:39;8.30;99.90
52543;DHT22;38449;52.696;6.186;2024-03-23T15:01:08;8.30;99.90
52543;DHT22;38449;52.696;6.186;2024-03-23T15:03:38;8.30;99.90
52543;DHT22;38449;52.696;6.186;2024-03-23T15:06:09;8.30;99.90
52543;DHT22;38449;52.696;6.186;2024-03-23T15:08:35;8.00;99.90
52543;DHT22;38449;52.696;6.186;2024-03-23T15:11:03;7.90;99.90
52543;DHT22;38449;52.696;6.186;2024-03-23T15:13:35;7.90;99.90
52543;DHT22;38449;52.696;6.186;2024-03-23T15:16:02;8.10;99.90
52543;DHT22;38449;52.696;6.186;2024-03-23T15:18:32;8.30;99.90
52543;DHT22;38449;52.696;6.186;2024-03-23T15:21:00;8.30;99.90
52543;DHT22;38449;52.696;6.186;2024-03-23T15:23:35;8.40;99.90
52543;DHT22;38449;52.696;6.186;2024-03-23T15:26:02;8.50;99.90
52543;DHT22;38449;52.696;6.186;2024-03-23T15:28:30;8.50;99.90
52543;DHT22;38449;52.696;6.186;2024-03-23T15:31:14;8.40;99.90
52543;DHT22;38449;52.696;6.186;2024-03-23T15:33:41;8.40;99.90
52543;DHT22;38449;52.696;6.186;2024-03-23T15:36:07;8.30;99.90
52543;DHT22;38449;52.696;6.186;2024-03-23T15:38:33;8.30;99.90
52543;DHT22;38449;52.696;6.186;2024-03-23T15:41:00;8.10;99.90
52543;DHT22;38449;52.696;6.186;2024-03-23T15:43:26;8.00;99.90
52543;DHT22;38449;52.696;6.186;2024-03-23T15:45:56;8.00;99.90
52543;DHT22;38449;52.696;6.186;2024-03-23T15:48:22;8.10;99.90
52543;DHT22;38449;52.696;6.186;2024-03-23T15:50:56;8.20;99.90
52543;DHT22;38449;52.696;6.186;2024-03-23T15:53:25;8.10;99.90
52543;DHT22;38449;52.696;6.186;2024-03-23T15:58:23;8.10;99.90
52543;DHT22;38449;52.696;6.186;2024-03-23T16:01:14;7.80;99.90
52543;DHT22;38449;52.696;6.186;2024-03-23T16:03:40;7.90;99.90
52543;DHT22;38449;52.696;6.186;2024-03-23T16:06:07;7.80;99.90
52543;DHT22;38449;52.696;6.186;2024-03-23T16:08:34;7.60;99.90
52543;DHT22;38449;52.696;6.186;2024-03-23T16:11:05;7.40;99.90
52543;DHT22;38449;52.696;6.186;2024-03-23T16:13:32;7.20;99.90
52543;DHT22;38449;52.696;6.186;2024-03-23T16:16:00;7.10;99.90
52543;DHT22;38449;52.696;6.186;2024-03-23T16:18:29;7.10;99.90
52543;DHT22;38449;52.696;6.186;2024-03-23T16:20:58;7.20;99.90
52543;DHT22;38449;52.696;6.186;2024-03-23T16:23:25;7.30;99.90
52543;DHT22;38449;52.696;6.186;2024-03-23T16:25:52;7.40;99.90
52543;DHT22;38449;52.696;6.186;2024-03-23T16:28:26;7.50;99.90
52543;DHT22;38449;52.696;6.186;2024-03-23T16:30:58;7.50;99.90
52543;DHT22;38449;52.696;6.186;2024-03-23T16:33:25;7.50;99.90
52543;DHT22;38449;52.696;6.186;2024-03-23T16:35:59;7.60;99.90
52543;DHT22;38449;52.696;6.186;2024-03-23T16:38:27;7.70;99.90
52543;DHT22;38449;52.696;6.186;2024-03-23T16:40:55;7.60;99.90
52543;DHT22;38449;52.696;6.186;2024-03-23T16:43:21;7.50;99.90
52543;DHT22;38449;52.696;6.186;2024-03-23T16:45:56;7.50;99.90
52543;DHT22;38449;52.696;6.186;2024-03-23T16:48:24;7.50;99.90
52543;DHT22;38449;52.696;6.186;2024-03-23T16:50:51;7.50;99.90
52543;DHT22;38449;52.696;6.186;2024-03-23T16:53:18;7.40;99.90
52543;DHT22;38449;52.696;6.186;2024-03-23T16:55:44;7.40;99.90
52543;DHT22;38449;52.696;6.186;2024-03-23T16:58:11;7.00;99.90